Time,TemperatureF,DewpointF,PressureIn,WindDirection,WindDirectionDegrees,WindSpeedMPH,WindSpeedGustMPH,Humidity,HourlyPrecipIn,Conditions,Clouds,dailyrainin,SoftwareType,DateUTC
2014-01-01 00:01:00,18.3,14.5,30.32,SW,226,0.0,0.0,85,0.00,,,0.01,WUHU216DAVISVP2,2014-01-01 05:01:00,
2014-01-01 00:02:00,18.4,14.6,30.32,SW,227,0.0,0.0,85,0.00,,,0.01,WUHU216DAVISVP2,2014-01-01 05:02:00,
2014-01-01 00:07:00,18.5,14.4,30.32,SW,227,1.0,1.0,84,0.00,,,0.01,WUHU216DAVISVP2,2014-01-01 05:07:00,
2014-01-01 00:12:00,18.4,14.3,30.31,SW,227,0.0,1.0,84,0.00,,,0.01,WUHU216DAVISVP2,2014-01-01 05:12:00,
2014-01-01 00:17:00,18.4,14.3,30.31,SW,227,1.0,1.0,84,0.00,,,0.01,WUHU216DAVISVP2,2014-01-01 05:17:00,
2014-01-01 00:22:00,18.3,14.3,30.31,SW,227,1.0,2.0,84,0.00,,,0.01,WUHU216DAVISVP2,2014-01-01 05:22:00,
2014-01-01 00:27:00,18.2,14.2,30.30,SW,227,1.0,2.0,84,0.00,,,0.01,WUHU216DAVISVP2,2014-01-01 05:27:00,
2014-01-01 00:32:00,18.0,14.0,30.30,SW,227,0.0,2.0,84,0.00,,,0.01,WUHU216DAVISVP2,2014-01-01 05:32:00,
2014-01-01 00:37:00,18.0,14.2,30.31,SW,226,0.0,1.0,85,0.00,,,0.01,WUHU216DAVISVP2,2014-01-01 05:37:00,
2014-01-01 00:41:00,17.9,14.1,30.30,SW,227,0.0,0.0,85,0.01,,,0.02,WUHU216DAVISVP2,2014-01-01 05:41:00,
2014-01-01 00:46:00,17.9,14.1,30.30,SW,227,0.0,1.0,85,0.01,,,0.02,WUHU216DAVISVP2,2014-01-01 05:46:00,
2014-01-01 00:51:00,17.9,14.1,30.30,SW,227,0.0,1.0,85,0.01,,,0.02,WUHU216DAVISVP2,2014-01-01 05:51:00,
2014-01-01 00:56:00,17.9,14.1,30.30,SW,227,0.0,0.0,85,0.01,,,0.02,WUHU216DAVISVP2,2014-01-01 05:56:00,
2014-01-01 01:01:00,18.0,14.2,30.30,SW,226,0.0,0.0,85,0.01,,,0.02,WUHU216DAVISVP2,2014-01-01 06:01:00,
2014-01-01 01:06:00,18.0,14.2,30.29,SW,227,0.0,0.0,85,0.01,,,0.02,WUHU216DAVISVP2,2014-01-01 06:06:00,
2014-01-01 01:11:00,18.0,14.2,30.29,SW,227,1.0,2.0,85,0.01,,,0.02,WUHU216DAVISVP2,2014-01-01 06:11:00,
2014-01-01 01:14:00,17.9,14.1,30.29,SW,226,1.0,2.0,85,0.01,,,0.02,WUHU216DAVISVP2,2014-01-01 06:14:00,
2014-01-01 01:19:00,17.9,14.1,30.29,SW,227,1.0,2.0,85,0.01,,,0.02,WUHU216DAVISVP2,2014-01-01 06:19:00,
2014-01-01 01:24:00,17.9,14.1,30.28,SW,227,0.0,2.0,85,0.02,,,0.03,WUHU216DAVISVP2,2014-01-01 06:24:00,
2014-01-01 01:29:00,17.9,14.1,30.29,SW,226,0.0,1.0,85,0.02,,,0.03,WUHU216DAVISVP2,2014-01-01 06:29:00,
2014-01-01 01:34:00,17.9,14.1,30.29,SW,227,0.0,0.0,85,0.02,,,0.03,WUHU216DAVISVP2,2014-01-01 06:34:00,
2014-01-01 01:39:00,17.8,14.0,30.29,SW,227,0.0,0.0,85,0.02,,,0.03,WUHU216DAVISVP2,2014-01-01 06:39:00,
2014-01-01 01:44:00,17.8,14.3,30.29,SW,227,0.0,0.0,86,0.01,,,0.03,WUHU216DAVISVP2,2014-01-01 06:44:00,
2014-01-01 01:49:00,17.7,14.2,30.29,SW,227,0.0,0.0,86,0.01,,,0.03,WUHU216DAVISVP2,2014-01-01 06:49:00,
2014-01-01 01:54:00,17.7,14.2,30.29,SW,226,0.0,0.0,86,0.01,,,0.03,WUHU216DAVISVP2,2014-01-01 06:54:00,
2014-01-01 01:55:00,17.7,14.2,30.29,SW,227,0.0,0.0,86,0.01,,,0.03,WUHU216DAVISVP2,2014-01-01 06:55:00,
2014-01-01 02:00:00,17.5,14.0,30.29,SW,227,0.0,0.0,86,0.01,,,0.03,WUHU216DAVISVP2,2014-01-01 07:00:00,
2014-01-01 02:05:00,17.2,13.7,30.29,SW,226,0.0,0.0,86,0.01,,,0.03,WUHU216DAVISVP2,2014-01-01 07:05:00,
2014-01-01 02:10:00,17.1,13.9,30.30,SW,227,0.0,0.0,87,0.01,,,0.03,WUHU216DAVISVP2,2014-01-01 07:10:00,
2014-01-01 02:15:00,17.0,13.8,30.30,SW,227,0.0,0.0,87,0.01,,,0.03,WUHU216DAVISVP2,2014-01-01 07:15:00,
2014-01-01 02:20:00,17.0,13.8,30.30,SW,226,0.0,0.0,87,0.01,,,0.03,WUHU216DAVISVP2,2014-01-01 07:20:00,
2014-01-01 02:22:00,17.0,13.8,30.30,SW,226,0.0,0.0,87,0.01,,,0.03,WUHU216DAVISVP2,2014-01-01 07:22:00,
2014-01-01 02:27:00,17.1,13.9,30.30,SW,226,0.0,0.0,87,0.00,,,0.03,WUHU216DAVISVP2,2014-01-01 07:27:00,
2014-01-01 02:32:00,17.1,13.9,30.30,SW,227,0.0,0.0,87,0.00,,,0.03,WUHU216DAVISVP2,2014-01-01 07:32:00,
2014-01-01 02:37:00,17.0,13.8,30.30,SW,226,0.0,0.0,87,0.00,,,0.03,WUHU216DAVISVP2,2014-01-01 07:37:00,
2014-01-01 02:42:00,17.0,14.0,30.30,SW,227,0.0,0.0,88,0.01,,,0.04,WUHU216DAVISVP2,2014-01-01 07:42:00,
2014-01-01 02:47:00,17.1,14.1,30.30,SW,227,0.0,0.0,88,0.01,,,0.04,WUHU216DAVISVP2,2014-01-01 07:47:00,
2014-01-01 02:52:00,17.3,14.3,30.30,SW,226,0.0,0.0,88,0.01,,,0.04,WUHU216DAVISVP2,2014-01-01 07:52:00,
2014-01-01 02:57:00,17.4,14.2,30.30,SW,227,0.0,0.0,87,0.01,,,0.04,WUHU216DAVISVP2,2014-01-01 07:57:00,
2014-01-01 03:00:00,17.5,14.5,30.30,SW,227,0.0,0.0,88,0.01,,,0.04,WUHU216DAVISVP2,2014-01-01 08:00:00,
2014-01-01 03:05:00,17.6,14.4,30.30,SW,227,0.0,0.0,87,0.01,,,0.04,WUHU216DAVISVP2,2014-01-01 08:05:00,
2014-01-01 03:10:00,17.6,14.4,30.30,SW,227,0.0,0.0,87,0.01,,,0.04,WUHU216DAVISVP2,2014-01-01 08:10:00,
2014-01-01 03:15:00,17.6,14.4,30.30,SW,226,0.0,0.0,87,0.01,,,0.04,WUHU216DAVISVP2,2014-01-01 08:15:00,
2014-01-01 03:20:00,17.7,14.4,30.30,SW,226,0.0,0.0,87,0.01,,,0.04,WUHU216DAVISVP2,2014-01-01 08:20:00,
2014-01-01 03:25:00,17.6,14.4,30.30,SW,227,0.0,0.0,87,0.01,,,0.04,WUHU216DAVISVP2,2014-01-01 08:25:00,
2014-01-01 03:30:00,17.6,14.4,30.30,SW,227,0.0,0.0,87,0.01,,,0.04,WUHU216DAVISVP2,2014-01-01 08:30:00,
2014-01-01 03:35:00,17.7,14.4,30.30,SW,226,0.0,0.0,87,0.01,,,0.04,WUHU216DAVISVP2,2014-01-01 08:35:00,
2014-01-01 03:40:00,17.7,14.4,30.30,SW,227,0.0,0.0,87,0.01,,,0.04,WUHU216DAVISVP2,2014-01-01 08:40:00,
2014-01-01 03:45:00,17.8,14.5,30.30,SW,227,0.0,0.0,87,0.00,,,0.04,WUHU216DAVISVP2,2014-01-01 08:45:00,
2014-01-01 03:50:00,17.9,14.6,30.30,SW,226,0.0,0.0,87,0.00,,,0.04,WUHU216DAVISVP2,2014-01-01 08:50:00,
2014-01-01 03:55:00,18.0,14.7,30.30,SW,227,0.0,0.0,87,0.00,,,0.04,WUHU216DAVISVP2,2014-01-01 08:55:00,
2014-01-01 04:00:00,18.1,14.8,30.30,SW,226,0.0,0.0,87,0.00,,,0.04,WUHU216DAVISVP2,2014-01-01 09:00:00,
2014-01-01 04:05:00,18.1,14.8,30.30,SW,226,0.0,0.0,87,0.00,,,0.04,WUHU216DAVISVP2,2014-01-01 09:05:00,
2014-01-01 04:10:00,18.0,14.5,30.29,SW,227,0.0,0.0,86,0.00,,,0.04,WUHU216DAVISVP2,2014-01-01 09:10:00,
2014-01-01 04:15:00,18.1,14.6,30.29,SW,227,0.0,0.0,86,0.01,,,0.05,WUHU216DAVISVP2,2014-01-01 09:15:00,
2014-01-01 04:20:00,18.1,14.6,30.29,SW,227,0.0,0.0,86,0.01,,,0.05,WUHU216DAVISVP2,2014-01-01 09:20:00,
2014-01-01 04:25:00,18.0,14.5,30.29,SW,226,0.0,0.0,86,0.01,,,0.05,WUHU216DAVISVP2,2014-01-01 09:25:00,
2014-01-01 04:30:00,18.0,14.5,30.29,SW,227,0.0,0.0,86,0.01,,,0.05,WUHU216DAVISVP2,2014-01-01 09:30:00,
2014-01-01 04:35:00,18.0,14.5,30.29,SW,227,0.0,0.0,86,0.01,,,0.05,WUHU216DAVISVP2,2014-01-01 09:35:00,
2014-01-01 04:40:00,18.0,14.5,30.28,SW,227,0.0,0.0,86,0.01,,,0.05,WUHU216DAVISVP2,2014-01-01 09:40:00,
2014-01-01 04:45:00,18.1,14.8,30.28,SW,226,0.0,0.0,87,0.01,,,0.05,WUHU216DAVISVP2,2014-01-01 09:45:00,
2014-01-01 04:50:00,18.1,14.6,30.28,SW,227,0.0,0.0,86,0.01,,,0.05,WUHU216DAVISVP2,2014-01-01 09:50:00,
2014-01-01 04:55:00,18.1,14.6,30.28,SW,227,0.0,0.0,86,0.01,,,0.05,WUHU216DAVISVP2,2014-01-01 09:55:00,
2014-01-01 05:00:00,18.2,14.7,30.28,SW,227,0.0,0.0,86,0.01,,,0.05,WUHU216DAVISVP2,2014-01-01 10:00:00,
2014-01-01 05:05:00,18.2,14.7,30.28,SW,226,0.0,0.0,86,0.01,,,0.05,WUHU216DAVISVP2,2014-01-01 10:05:00,
2014-01-01 05:10:00,18.2,14.7,30.28,SW,227,0.0,0.0,86,0.01,,,0.05,WUHU216DAVISVP2,2014-01-01 10:10:00,
2014-01-01 05:15:00,18.2,14.7,30.28,SW,227,0.0,0.0,86,0.00,,,0.05,WUHU216DAVISVP2,2014-01-01 10:15:00,
2014-01-01 05:20:00,18.2,14.7,30.28,SW,226,0.0,0.0,86,0.00,,,0.05,WUHU216DAVISVP2,2014-01-01 10:20:00,
2014-01-01 05:25:00,18.2,14.7,30.29,SW,226,0.0,1.0,86,0.00,,,0.05,WUHU216DAVISVP2,2014-01-01 10:25:00,
2014-01-01 05:30:00,18.1,14.6,30.28,ESE,119,0.0,2.0,86,0.00,,,0.05,WUHU216DAVISVP2,2014-01-01 10:30:00,
2014-01-01 05:35:00,18.1,14.6,30.28,ESE,123,0.0,2.0,86,0.00,,,0.05,WUHU216DAVISVP2,2014-01-01 10:35:00,
2014-01-01 05:40:00,18.0,14.5,30.28,ESE,123,0.0,2.0,86,0.00,,,0.05,WUHU216DAVISVP2,2014-01-01 10:40:00,
2014-01-01 05:45:00,18.1,14.6,30.28,ESE,121,0.0,2.0,86,0.00,,,0.05,WUHU216DAVISVP2,2014-01-01 10:45:00,
2014-01-01 05:50:00,18.0,14.5,30.28,ESE,115,1.0,4.0,86,0.00,,,0.05,WUHU216DAVISVP2,2014-01-01 10:50:00,
2014-01-01 05:55:00,17.9,14.4,30.28,ESE,113,0.0,4.0,86,0.00,,,0.05,WUHU216DAVISVP2,2014-01-01 10:55:00,
2014-01-01 06:00:00,17.8,14.3,30.29,ESE,103,0.0,2.0,86,0.00,,,0.05,WUHU216DAVISVP2,2014-01-01 11:00:00,
2014-01-01 06:05:00,17.7,14.2,30.29,ENE,65,1.0,3.0,86,0.00,,,0.05,WUHU216DAVISVP2,2014-01-01 11:05:00,
2014-01-01 06:10:00,17.7,14.2,30.28,East,81,1.0,3.0,86,0.00,,,0.05,WUHU216DAVISVP2,2014-01-01 11:10:00,
2014-01-01 06:15:00,17.7,14.2,30.29,East,87,0.0,4.0,86,0.00,,,0.05,WUHU216DAVISVP2,2014-01-01 11:15:00,
2014-01-01 06:20:00,17.7,14.2,30.29,NNE,17,0.0,4.0,86,0.00,,,0.05,WUHU216DAVISVP2,2014-01-01 11:20:00,
2014-01-01 06:25:00,17.6,14.1,30.29,NE,34,1.0,4.0,86,0.00,,,0.05,WUHU216DAVISVP2,2014-01-01 11:25:00,
2014-01-01 06:30:00,17.6,14.1,30.29,East,86,1.0,4.0,86,0.00,,,0.05,WUHU216DAVISVP2,2014-01-01 11:30:00,
2014-01-01 06:35:00,17.5,14.0,30.30,NE,55,1.0,4.0,86,0.00,,,0.05,WUHU216DAVISVP2,2014-01-01 11:35:00,
2014-01-01 06:40:00,17.4,13.9,30.29,East,80,1.0,4.0,86,0.00,,,0.05,WUHU216DAVISVP2,2014-01-01 11:40:00,
2014-01-01 06:45:00,17.3,13.8,30.29,NE,48,0.0,4.0,86,0.00,,,0.05,WUHU216DAVISVP2,2014-01-01 11:45:00,
2014-01-01 06:50:00,17.3,13.8,30.29,East,88,1.0,4.0,86,0.00,,,0.05,WUHU216DAVISVP2,2014-01-01 11:50:00,
2014-01-01 06:55:00,17.3,13.8,30.29,ENE,72,3.0,4.0,86,0.00,,,0.05,WUHU216DAVISVP2,2014-01-01 11:55:00,
2014-01-01 07:00:00,17.3,13.8,30.29,ENE,74,2.0,4.0,86,0.00,,,0.05,WUHU216DAVISVP2,2014-01-01 12:00:00,
2014-01-01 07:05:00,17.3,13.8,30.29,East,91,0.0,4.0,86,0.00,,,0.05,WUHU216DAVISVP2,2014-01-01 12:05:00,
2014-01-01 07:10:00,17.4,13.9,30.29,East,88,1.0,4.0,86,0.00,,,0.05,WUHU216DAVISVP2,2014-01-01 12:10:00,
2014-01-01 07:15:00,17.3,13.8,30.29,ENE,68,1.0,4.0,86,0.00,,,0.05,WUHU216DAVISVP2,2014-01-01 12:15:00,
2014-01-01 07:20:00,17.4,13.9,30.28,ENE,69,2.0,4.0,86,0.00,,,0.05,WUHU216DAVISVP2,2014-01-01 12:20:00,
2014-01-01 07:25:00,17.4,13.9,30.29,ENE,77,0.0,4.0,86,0.00,,,0.05,WUHU216DAVISVP2,2014-01-01 12:25:00,
2014-01-01 07:30:00,17.5,14.0,30.29,NE,43,1.0,4.0,86,0.00,,,0.05,WUHU216DAVISVP2,2014-01-01 12:30:00,
2014-01-01 07:35:00,17.5,14.0,30.29,ENE,74,1.0,4.0,86,0.00,,,0.05,WUHU216DAVISVP2,2014-01-01 12:35:00,
2014-01-01 07:40:00,17.6,14.1,30.28,NE,53,1.0,4.0,86,0.00,,,0.05,WUHU216DAVISVP2,2014-01-01 12:40:00,
2014-01-01 07:46:00,17.6,14.1,30.28,ENE,78,0.0,3.0,86,0.00,,,0.05,WUHU216DAVISVP2,2014-01-01 12:46:00,
2014-01-01 07:51:00,17.7,14.2,30.28,East,94,0.0,3.0,86,0.00,,,0.05,WUHU216DAVISVP2,2014-01-01 12:51:00,
2014-01-01 07:56:00,17.7,14.2,30.28,ENE,69,2.0,4.0,86,0.00,,,0.05,WUHU216DAVISVP2,2014-01-01 12:56:00,
2014-01-01 08:01:00,17.7,13.9,30.29,NE,44,0.0,4.0,85,0.00,,,0.05,WUHU216DAVISVP2,2014-01-01 13:01:00,
2014-01-01 08:06:00,17.6,13.8,30.29,NE,50,0.0,4.0,85,0.00,,,0.05,WUHU216DAVISVP2,2014-01-01 13:06:00,
2014-01-01 08:11:00,17.6,13.8,30.29,NE,47,2.0,5.0,85,0.00,,,0.05,WUHU216DAVISVP2,2014-01-01 13:11:00,
2014-01-01 08:16:00,17.6,13.8,30.29,NE,46,2.0,5.0,85,0.00,,,0.05,WUHU216DAVISVP2,2014-01-01 13:16:00,
2014-01-01 08:21:00,17.5,13.7,30.29,NNE,31,0.0,5.0,85,0.00,,,0.05,WUHU216DAVISVP2,2014-01-01 13:21:00,
2014-01-01 08:26:00,17.6,13.8,30.28,NNE,20,3.0,5.0,85,0.00,,,0.05,WUHU216DAVISVP2,2014-01-01 13:26:00,
2014-01-01 08:31:00,17.6,13.8,30.28,ENE,59,1.0,5.0,85,0.00,,,0.05,WUHU216DAVISVP2,2014-01-01 13:31:00,
2014-01-01 08:36:00,17.6,13.8,30.28,ENE,75,1.0,4.0,85,0.00,,,0.05,WUHU216DAVISVP2,2014-01-01 13:36:00,
2014-01-01 08:40:00,17.7,13.9,30.28,NNE,30,3.0,4.0,85,0.00,,,0.05,WUHU216DAVISVP2,2014-01-01 13:40:00,
2014-01-01 08:46:00,17.7,13.9,30.29,East,96,1.0,4.0,85,0.00,,,0.05,WUHU216DAVISVP2,2014-01-01 13:46:00,
2014-01-01 08:51:00,17.8,14.0,30.29,ENE,58,1.0,5.0,85,0.00,,,0.05,WUHU216DAVISVP2,2014-01-01 13:51:00,
2014-01-01 08:55:00,17.8,14.0,30.29,ENE,65,2.0,6.0,85,0.00,,,0.05,WUHU216DAVISVP2,2014-01-01 13:55:00,
2014-01-01 09:00:00,17.8,14.0,30.29,ENE,69,5.0,7.0,85,0.00,,,0.05,WUHU216DAVISVP2,2014-01-01 14:00:00,
2014-01-01 09:05:00,17.7,13.9,30.30,ENE,57,1.0,7.0,85,0.00,,,0.05,WUHU216DAVISVP2,2014-01-01 14:05:00,
2014-01-01 09:10:00,17.7,13.9,30.30,East,84,3.0,6.0,85,0.00,,,0.05,WUHU216DAVISVP2,2014-01-01 14:10:00,
2014-01-01 09:15:00,17.7,13.9,30.29,ENE,67,1.0,5.0,85,0.00,,,0.05,WUHU216DAVISVP2,2014-01-01 14:15:00,
2014-01-01 09:20:00,17.8,14.0,30.29,East,96,4.0,6.0,85,0.00,,,0.05,WUHU216DAVISVP2,2014-01-01 14:20:00,
2014-01-01 09:25:00,17.8,14.0,30.29,ENE,74,2.0,6.0,85,0.00,,,0.05,WUHU216DAVISVP2,2014-01-01 14:25:00,
2014-01-01 09:30:00,17.8,14.0,30.29,East,88,2.0,7.0,85,0.00,,,0.05,WUHU216DAVISVP2,2014-01-01 14:30:00,
2014-01-01 09:35:00,17.9,14.1,30.29,NE,51,0.0,7.0,85,0.00,,,0.05,WUHU216DAVISVP2,2014-01-01 14:35:00,
2014-01-01 09:40:00,18.0,14.2,30.29,ESE,104,1.0,6.0,85,0.00,,,0.05,WUHU216DAVISVP2,2014-01-01 14:40:00,
2014-01-01 09:45:00,18.1,14.3,30.29,ENE,63,2.0,6.0,85,0.00,,,0.05,WUHU216DAVISVP2,2014-01-01 14:45:00,
2014-01-01 09:50:00,18.2,14.4,30.30,ENE,71,3.0,6.0,85,0.00,,,0.05,WUHU216DAVISVP2,2014-01-01 14:50:00,
2014-01-01 09:55:00,18.4,14.6,30.30,NE,49,1.0,6.0,85,0.00,,,0.05,WUHU216DAVISVP2,2014-01-01 14:55:00,
2014-01-01 10:00:00,18.5,14.7,30.30,East,90,1.0,6.0,85,0.00,,,0.05,WUHU216DAVISVP2,2014-01-01 15:00:00,
2014-01-01 10:05:00,18.5,14.7,30.30,NE,36,1.0,6.0,85,0.00,,,0.05,WUHU216DAVISVP2,2014-01-01 15:05:00,
2014-01-01 10:10:00,18.5,14.5,30.30,NE,42,4.0,7.0,84,0.00,,,0.05,WUHU216DAVISVP2,2014-01-01 15:10:00,
2014-01-01 10:15:00,18.5,14.5,30.30,NE,47,6.0,8.0,84,0.00,,,0.05,WUHU216DAVISVP2,2014-01-01 15:15:00,
2014-01-01 10:20:00,18.5,14.5,30.30,NNE,23,2.0,8.0,84,0.00,,,0.05,WUHU216DAVISVP2,2014-01-01 15:20:00,
2014-01-01 10:25:00,18.5,14.2,30.30,NNE,21,8.0,8.0,83,0.00,,,0.05,WUHU216DAVISVP2,2014-01-01 15:25:00,
2014-01-01 10:30:00,18.4,14.1,30.31,NE,37,5.0,8.0,83,0.00,,,0.05,WUHU216DAVISVP2,2014-01-01 15:30:00,
2014-01-01 10:35:00,18.5,14.2,30.31,NE,42,8.0,8.0,83,0.00,,,0.05,WUHU216DAVISVP2,2014-01-01 15:35:00,
2014-01-01 10:40:00,18.4,14.1,30.31,NE,46,3.0,8.0,83,0.00,,,0.05,WUHU216DAVISVP2,2014-01-01 15:40:00,
2014-01-01 10:45:00,18.4,14.1,30.31,NE,51,2.0,9.0,83,0.00,,,0.05,WUHU216DAVISVP2,2014-01-01 15:45:00,
2014-01-01 10:50:00,18.4,14.1,30.31,ENE,61,3.0,9.0,83,0.00,,,0.05,WUHU216DAVISVP2,2014-01-01 15:50:00,
2014-01-01 10:55:00,18.4,13.8,30.31,NE,44,1.0,9.0,82,0.00,,,0.05,WUHU216DAVISVP2,2014-01-01 15:55:00,
2014-01-01 11:01:00,18.5,14.2,30.31,NE,38,2.0,9.0,83,0.00,,,0.05,WUHU216DAVISVP2,2014-01-01 16:01:00,
2014-01-01 11:06:00,18.6,14.0,30.31,NE,34,5.0,8.0,82,0.00,,,0.05,WUHU216DAVISVP2,2014-01-01 16:06:00,
2014-01-01 11:11:00,18.5,13.9,30.31,NNE,31,7.0,9.0,82,0.00,,,0.05,WUHU216DAVISVP2,2014-01-01 16:11:00,
2014-01-01 11:16:00,18.4,13.8,30.31,NE,53,2.0,9.0,82,0.00,,,0.05,WUHU216DAVISVP2,2014-01-01 16:16:00,
2014-01-01 11:21:00,18.4,13.8,30.30,NE,36,6.0,10.0,82,0.00,,,0.05,WUHU216DAVISVP2,2014-01-01 16:21:00,
2014-01-01 11:26:00,18.5,13.9,30.30,NE,43,5.0,10.0,82,0.00,,,0.05,WUHU216DAVISVP2,2014-01-01 16:26:00,
2014-01-01 11:31:00,18.6,14.0,30.30,NNE,28,2.0,9.0,82,0.00,,,0.05,WUHU216DAVISVP2,2014-01-01 16:31:00,
2014-01-01 11:36:00,18.7,14.1,30.30,NE,35,3.0,12.0,82,0.00,,,0.05,WUHU216DAVISVP2,2014-01-01 16:36:00,
2014-01-01 11:41:00,18.9,14.3,30.29,East,92,7.0,12.0,82,0.00,,,0.05,WUHU216DAVISVP2,2014-01-01 16:41:00,
2014-01-01 11:46:00,19.0,14.1,30.29,NE,36,7.0,8.0,81,0.00,,,0.05,WUHU216DAVISVP2,2014-01-01 16:46:00,
2014-01-01 11:51:00,18.9,14.0,30.29,NNE,25,4.0,13.0,81,0.00,,,0.05,WUHU216DAVISVP2,2014-01-01 16:51:00,
2014-01-01 11:56:00,18.8,13.7,30.28,ENE,78,5.0,13.0,80,0.00,,,0.05,WUHU216DAVISVP2,2014-01-01 16:56:00,
2014-01-01 12:01:00,18.7,13.8,30.28,ESE,105,1.0,11.0,81,0.00,,,0.05,WUHU216DAVISVP2,2014-01-01 17:01:00,
2014-01-01 12:06:00,18.8,13.9,30.28,East,82,1.0,8.0,81,0.00,,,0.05,WUHU216DAVISVP2,2014-01-01 17:06:00,
2014-01-01 12:11:00,18.9,14.0,30.28,East,97,2.0,9.0,81,0.00,,,0.05,WUHU216DAVISVP2,2014-01-01 17:11:00,
2014-01-01 12:16:00,18.8,13.9,30.27,East,88,1.0,9.0,81,0.00,,,0.05,WUHU216DAVISVP2,2014-01-01 17:16:00,
2014-01-01 12:21:00,18.7,13.8,30.27,NE,56,5.0,13.0,81,0.00,,,0.05,WUHU216DAVISVP2,2014-01-01 17:21:00,
2014-01-01 12:26:00,18.6,13.7,30.27,East,92,1.0,13.0,81,0.00,,,0.05,WUHU216DAVISVP2,2014-01-01 17:26:00,
2014-01-01 12:31:00,18.5,13.6,30.26,NE,40,6.0,11.0,81,0.00,,,0.05,WUHU216DAVISVP2,2014-01-01 17:31:00,
2014-01-01 12:36:00,18.3,13.4,30.26,NE,42,2.0,11.0,81,0.00,,,0.05,WUHU216DAVISVP2,2014-01-01 17:36:00,
2014-01-01 12:41:00,18.4,13.5,30.25,NE,53,4.0,10.0,81,0.00,,,0.05,WUHU216DAVISVP2,2014-01-01 17:41:00,
2014-01-01 12:46:00,18.5,13.6,30.25,NNE,33,4.0,10.0,81,0.00,,,0.05,WUHU216DAVISVP2,2014-01-01 17:46:00,
2014-01-01 12:51:00,18.7,13.8,30.25,NE,43,5.0,9.0,81,0.00,,,0.05,WUHU216DAVISVP2,2014-01-01 17:51:00,
2014-01-01 12:56:00,18.8,13.9,30.25,NNE,30,1.0,7.0,81,0.00,,,0.05,WUHU216DAVISVP2,2014-01-01 17:56:00,
2014-01-01 13:01:00,18.9,14.0,30.25,NE,43,2.0,9.0,81,0.00,,,0.05,WUHU216DAVISVP2,2014-01-01 18:01:00,
2014-01-01 13:06:00,19.0,14.1,30.25,NE,53,8.0,9.0,81,0.00,,,0.05,WUHU216DAVISVP2,2014-01-01 18:06:00,
2014-01-01 13:11:00,19.1,13.9,30.25,NE,34,4.0,10.0,80,0.00,,,0.05,WUHU216DAVISVP2,2014-01-01 18:11:00,
2014-01-01 13:16:00,19.1,13.9,30.24,NNE,30,4.0,13.0,80,0.00,,,0.05,WUHU216DAVISVP2,2014-01-01 18:16:00,
2014-01-01 13:21:00,19.0,13.8,30.24,ENE,78,3.0,13.0,80,0.00,,,0.05,WUHU216DAVISVP2,2014-01-01 18:21:00,
2014-01-01 13:26:00,19.3,14.4,30.24,NE,51,8.0,9.0,81,0.00,,,0.05,WUHU216DAVISVP2,2014-01-01 18:26:00,
2014-01-01 13:31:00,19.2,14.0,30.24,ESE,107,1.0,8.0,80,0.00,,,0.05,WUHU216DAVISVP2,2014-01-01 18:31:00,
2014-01-01 13:36:00,19.3,14.1,30.24,NE,42,4.0,8.0,80,0.00,,,0.05,WUHU216DAVISVP2,2014-01-01 18:36:00,
2014-01-01 13:41:00,19.5,14.3,30.24,NNE,13,6.0,7.0,80,0.00,,,0.05,WUHU216DAVISVP2,2014-01-01 18:41:00,
2014-01-01 13:46:00,19.5,14.1,30.23,NE,34,6.0,7.0,79,0.00,,,0.05,WUHU216DAVISVP2,2014-01-01 18:46:00,
2014-01-01 13:51:00,19.5,14.3,30.23,NE,45,4.0,11.0,80,0.00,,,0.05,WUHU216DAVISVP2,2014-01-01 18:51:00,
2014-01-01 13:56:00,19.4,14.2,30.23,NNE,26,5.0,11.0,80,0.00,,,0.05,WUHU216DAVISVP2,2014-01-01 18:56:00,
2014-01-01 14:01:00,19.4,14.2,30.23,NE,42,1.0,10.0,80,0.00,,,0.05,WUHU216DAVISVP2,2014-01-01 19:01:00,
2014-01-01 14:06:00,19.4,14.2,30.23,NNE,30,2.0,10.0,80,0.00,,,0.05,WUHU216DAVISVP2,2014-01-01 19:06:00,
2014-01-01 14:11:00,19.3,14.1,30.23,NE,46,2.0,8.0,80,0.00,,,0.05,WUHU216DAVISVP2,2014-01-01 19:11:00,
2014-01-01 14:16:00,19.0,13.8,30.23,NNE,32,4.0,13.0,80,0.00,,,0.05,WUHU216DAVISVP2,2014-01-01 19:16:00,
2014-01-01 14:21:00,18.8,13.9,30.23,East,92,2.0,13.0,81,0.00,,,0.05,WUHU216DAVISVP2,2014-01-01 19:21:00,
2014-01-01 14:26:00,18.8,13.9,30.23,NE,42,5.0,11.0,81,0.00,,,0.05,WUHU216DAVISVP2,2014-01-01 19:26:00,
2014-01-01 14:31:00,18.7,14.1,30.23,NNE,28,3.0,11.0,82,0.00,,,0.05,WUHU216DAVISVP2,2014-01-01 19:31:00,
2014-01-01 14:38:00,18.5,13.9,30.23,ENE,78,3.0,11.0,82,0.00,,,0.05,WUHU216DAVISVP2,2014-01-01 19:38:00,
2014-01-01 14:43:00,18.5,13.9,30.23,East,82,3.0,9.0,82,0.00,,,0.05,WUHU216DAVISVP2,2014-01-01 19:43:00,
2014-01-01 14:48:00,18.5,13.9,30.23,NE,55,5.0,8.0,82,0.00,,,0.05,WUHU216DAVISVP2,2014-01-01 19:48:00,
2014-01-01 14:53:00,18.5,13.9,30.23,NE,45,0.0,8.0,82,0.00,,,0.05,WUHU216DAVISVP2,2014-01-01 19:53:00,
2014-01-01 14:59:00,18.6,14.0,30.22,ENE,67,2.0,7.0,82,0.00,,,0.05,WUHU216DAVISVP2,2014-01-01 19:59:00,
2014-01-01 15:04:00,18.6,14.0,30.23,ENE,61,2.0,8.0,82,0.00,,,0.05,WUHU216DAVISVP2,2014-01-01 20:04:00,
2014-01-01 15:10:00,18.5,13.9,30.22,ENE,75,7.0,8.0,82,0.00,,,0.05,WUHU216DAVISVP2,2014-01-01 20:10:00,
2014-01-01 15:15:00,18.4,13.8,30.22,NNE,24,7.0,11.0,82,0.00,,,0.05,WUHU216DAVISVP2,2014-01-01 20:15:00,
2014-01-01 15:20:00,18.3,14.0,30.22,NNE,32,4.0,11.0,83,0.00,,,0.05,WUHU216DAVISVP2,2014-01-01 20:20:00,
2014-01-01 15:25:00,18.2,13.9,30.22,NE,34,8.0,8.0,83,0.00,,,0.05,WUHU216DAVISVP2,2014-01-01 20:25:00,
2014-01-01 15:30:00,17.9,13.6,30.22,NE,41,2.0,8.0,83,0.00,,,0.05,WUHU216DAVISVP2,2014-01-01 20:30:00,
2014-01-01 15:35:00,17.9,13.6,30.22,ENE,76,2.0,8.0,83,0.00,,,0.05,WUHU216DAVISVP2,2014-01-01 20:35:00,
2014-01-01 15:40:00,18.0,13.7,30.22,NE,41,4.0,8.0,83,0.00,,,0.05,WUHU216DAVISVP2,2014-01-01 20:40:00,
2014-01-01 15:45:00,18.0,13.7,30.22,NE,42,3.0,9.0,83,0.00,,,0.05,WUHU216DAVISVP2,2014-01-01 20:45:00,
2014-01-01 15:50:00,17.8,13.2,30.22,ENE,63,3.0,9.0,82,0.00,,,0.05,WUHU216DAVISVP2,2014-01-01 20:50:00,
2014-01-01 15:55:00,17.6,13.3,30.22,NE,44,5.0,9.0,83,0.00,,,0.05,WUHU216DAVISVP2,2014-01-01 20:55:00,
2014-01-01 16:00:00,17.5,13.2,30.22,NNE,33,7.0,11.0,83,0.00,,,0.05,WUHU216DAVISVP2,2014-01-01 21:00:00,
2014-01-01 16:05:00,17.3,13.0,30.22,NNE,22,5.0,11.0,83,0.00,,,0.05,WUHU216DAVISVP2,2014-01-01 21:05:00,
2014-01-01 16:10:00,17.1,13.1,30.22,NE,56,5.0,12.0,84,0.00,,,0.05,WUHU216DAVISVP2,2014-01-01 21:10:00,
2014-01-01 16:15:00,17.0,13.0,30.22,NE,53,4.0,12.0,84,0.00,,,0.05,WUHU216DAVISVP2,2014-01-01 21:15:00,
2014-01-01 16:20:00,17.0,13.0,30.22,NE,36,8.0,9.0,84,0.00,,,0.05,WUHU216DAVISVP2,2014-01-01 21:20:00,
2014-01-01 16:25:00,17.0,13.2,30.22,NE,47,1.0,9.0,85,0.00,,,0.05,WUHU216DAVISVP2,2014-01-01 21:25:00,
2014-01-01 16:30:00,16.9,13.1,30.22,NE,53,3.0,8.0,85,0.00,,,0.05,WUHU216DAVISVP2,2014-01-01 21:30:00,
2014-01-01 16:35:00,17.0,13.2,30.22,NE,51,5.0,8.0,85,0.01,,,0.06,WUHU216DAVISVP2,2014-01-01 21:35:00,
2014-01-01 16:40:00,17.0,13.2,30.22,North,360,11.0,11.0,85,0.01,,,0.06,WUHU216DAVISVP2,2014-01-01 21:40:00,
2014-01-01 16:45:00,16.8,13.0,30.22,ENE,76,3.0,11.0,85,0.01,,,0.06,WUHU216DAVISVP2,2014-01-01 21:45:00,
2014-01-01 16:50:00,16.7,12.9,30.22,NE,49,4.0,9.0,85,0.01,,,0.06,WUHU216DAVISVP2,2014-01-01 21:50:00,
2014-01-01 16:55:00,16.5,12.7,30.22,NE,38,6.0,8.0,85,0.01,,,0.06,WUHU216DAVISVP2,2014-01-01 21:55:00,
2014-01-01 17:00:00,16.5,12.7,30.22,NE,39,5.0,8.0,85,0.01,,,0.06,WUHU216DAVISVP2,2014-01-01 22:00:00,
2014-01-01 17:05:00,16.3,12.6,30.22,NE,48,0.0,8.0,85,0.01,,,0.06,WUHU216DAVISVP2,2014-01-01 22:05:00,
2014-01-01 17:10:00,16.3,12.8,30.22,ENE,69,1.0,8.0,86,0.01,,,0.06,WUHU216DAVISVP2,2014-01-01 22:10:00,
2014-01-01 17:15:00,16.3,12.8,30.22,NE,35,3.0,8.0,86,0.02,,,0.07,WUHU216DAVISVP2,2014-01-01 22:15:00,
2014-01-01 17:20:00,16.2,12.7,30.22,East,89,2.0,8.0,86,0.02,,,0.07,WUHU216DAVISVP2,2014-01-01 22:20:00,
2014-01-01 17:25:00,16.1,12.6,30.22,NE,44,2.0,10.0,86,0.02,,,0.07,WUHU216DAVISVP2,2014-01-01 22:25:00,
2014-01-01 17:30:00,16.0,12.5,30.22,NE,49,4.0,10.0,86,0.02,,,0.07,WUHU216DAVISVP2,2014-01-01 22:30:00,
2014-01-01 17:35:00,15.9,12.4,30.22,NNE,26,6.0,10.0,86,0.01,,,0.07,WUHU216DAVISVP2,2014-01-01 22:35:00,
2014-01-01 17:40:00,15.7,12.2,30.22,NE,45,6.0,10.0,86,0.01,,,0.07,WUHU216DAVISVP2,2014-01-01 22:40:00,
2014-01-01 17:45:00,15.7,12.2,30.23,NE,45,2.0,10.0,86,0.01,,,0.07,WUHU216DAVISVP2,2014-01-01 22:45:00,
2014-01-01 17:50:00,15.6,12.1,30.22,NE,42,0.0,7.0,86,0.01,,,0.07,WUHU216DAVISVP2,2014-01-01 22:50:00,
2014-01-01 17:55:00,15.6,12.1,30.22,NNE,31,3.0,8.0,86,0.01,,,0.07,WUHU216DAVISVP2,2014-01-01 22:55:00,
2014-01-01 18:00:00,15.5,12.0,30.22,NE,42,4.0,10.0,86,0.01,,,0.07,WUHU216DAVISVP2,2014-01-01 23:00:00,
2014-01-01 18:05:00,15.4,11.9,30.22,NE,41,5.0,10.0,86,0.01,,,0.07,WUHU216DAVISVP2,2014-01-01 23:05:00,
2014-01-01 18:10:00,15.3,11.8,30.22,NNE,31,4.0,10.0,86,0.01,,,0.07,WUHU216DAVISVP2,2014-01-01 23:10:00,
2014-01-01 18:15:00,15.3,11.8,30.22,ENE,75,3.0,10.0,86,0.00,,,0.07,WUHU216DAVISVP2,2014-01-01 23:15:00,
2014-01-01 18:20:00,15.3,11.8,30.22,NE,53,2.0,7.0,86,0.01,,,0.08,WUHU216DAVISVP2,2014-01-01 23:20:00,
2014-01-01 18:25:00,15.3,11.8,30.22,ENE,59,2.0,8.0,86,0.01,,,0.08,WUHU216DAVISVP2,2014-01-01 23:25:00,
2014-01-01 18:30:00,15.4,11.9,30.22,NE,44,2.0,8.0,86,0.01,,,0.08,WUHU216DAVISVP2,2014-01-01 23:30:00,
2014-01-01 18:35:00,15.4,11.9,30.22,NE,40,8.0,8.0,86,0.01,,,0.08,WUHU216DAVISVP2,2014-01-01 23:35:00,
2014-01-01 18:40:00,15.4,11.9,30.22,NE,46,2.0,8.0,86,0.01,,,0.08,WUHU216DAVISVP2,2014-01-01 23:40:00,
2014-01-01 18:45:00,15.2,11.7,30.22,ENE,59,1.0,12.0,86,0.01,,,0.08,WUHU216DAVISVP2,2014-01-01 23:45:00,
2014-01-01 18:50:00,15.1,11.7,30.22,NE,36,3.0,12.0,86,0.01,,,0.08,WUHU216DAVISVP2,2014-01-01 23:50:00,
2014-01-01 18:55:00,15.0,11.6,30.22,ENE,63,6.0,9.0,86,0.02,,,0.09,WUHU216DAVISVP2,2014-01-01 23:55:00,
2014-01-01 19:00:00,14.9,11.5,30.22,North,5,2.0,8.0,86,0.02,,,0.09,WUHU216DAVISVP2,2014-01-02 00:00:00,
2014-01-01 19:05:00,14.8,11.4,30.22,NE,44,6.0,14.0,86,0.02,,,0.09,WUHU216DAVISVP2,2014-01-02 00:05:00,
2014-01-01 19:10:00,14.7,11.3,30.22,ENE,57,1.0,14.0,86,0.02,,,0.09,WUHU216DAVISVP2,2014-01-02 00:10:00,
2014-01-01 19:15:00,14.6,11.4,30.22,NE,41,4.0,11.0,87,0.02,,,0.09,WUHU216DAVISVP2,2014-01-02 00:15:00,
2014-01-01 19:20:00,14.6,11.4,30.22,ENE,76,7.0,8.0,87,0.01,,,0.09,WUHU216DAVISVP2,2014-01-02 00:20:00,
2014-01-01 19:25:00,14.6,11.4,30.22,East,90,0.0,8.0,87,0.01,,,0.09,WUHU216DAVISVP2,2014-01-02 00:25:00,
2014-01-01 19:30:00,14.6,11.4,30.22,NE,46,3.0,7.0,87,0.01,,,0.09,WUHU216DAVISVP2,2014-01-02 00:30:00,
2014-01-01 19:35:00,14.5,11.3,30.22,NE,56,3.0,11.0,87,0.01,,,0.09,WUHU216DAVISVP2,2014-01-02 00:35:00,
2014-01-01 19:40:00,14.5,11.3,30.22,NE,36,2.0,11.0,87,0.01,,,0.09,WUHU216DAVISVP2,2014-01-02 00:40:00,
2014-01-01 19:45:00,14.4,11.2,30.22,NE,40,7.0,9.0,87,0.01,,,0.09,WUHU216DAVISVP2,2014-01-02 00:45:00,
2014-01-01 19:50:00,14.3,11.1,30.22,NE,42,4.0,10.0,87,0.02,,,0.10,WUHU216DAVISVP2,2014-01-02 00:50:00,
2014-01-01 19:55:00,14.3,11.1,30.22,NE,42,3.0,10.0,87,0.01,,,0.10,WUHU216DAVISVP2,2014-01-02 00:55:00,
2014-01-01 20:00:00,14.3,11.1,30.22,NE,55,2.0,8.0,87,0.01,,,0.10,WUHU216DAVISVP2,2014-01-02 01:00:00,
2014-01-01 20:05:00,14.3,11.1,30.22,East,79,1.0,10.0,87,0.01,,,0.10,WUHU216DAVISVP2,2014-01-02 01:05:00,
2014-01-01 20:10:00,14.2,11.0,30.22,East,84,1.0,10.0,87,0.01,,,0.10,WUHU216DAVISVP2,2014-01-02 01:10:00,
2014-01-01 20:15:00,14.3,11.1,30.21,ENE,59,1.0,7.0,87,0.01,,,0.10,WUHU216DAVISVP2,2014-01-02 01:15:00,
2014-01-01 20:20:00,14.2,11.0,30.21,NE,44,1.0,5.0,87,0.02,,,0.11,WUHU216DAVISVP2,2014-01-02 01:20:00,
2014-01-01 20:25:00,14.3,11.1,30.21,ENE,61,2.0,6.0,87,0.02,,,0.11,WUHU216DAVISVP2,2014-01-02 01:25:00,
2014-01-01 20:30:00,14.2,11.0,30.21,ENE,60,1.0,11.0,87,0.02,,,0.11,WUHU216DAVISVP2,2014-01-02 01:30:00,
2014-01-01 20:35:00,14.1,10.9,30.21,ENE,71,3.0,11.0,87,0.02,,,0.11,WUHU216DAVISVP2,2014-01-02 01:35:00,
2014-01-01 20:40:00,14.1,10.9,30.21,NNE,30,1.0,8.0,87,0.02,,,0.11,WUHU216DAVISVP2,2014-01-02 01:40:00,
2014-01-01 20:45:00,14.0,10.5,30.21,ENE,74,2.0,8.0,86,0.02,,,0.11,WUHU216DAVISVP2,2014-01-02 01:45:00,
2014-01-01 20:50:00,14.0,10.5,30.21,ENE,59,5.0,10.0,86,0.01,,,0.11,WUHU216DAVISVP2,2014-01-02 01:50:00,
2014-01-01 20:55:00,14.0,10.5,30.21,NNE,19,1.0,10.0,86,0.01,,,0.11,WUHU216DAVISVP2,2014-01-02 01:55:00,
2014-01-01 21:00:00,13.9,10.5,30.20,NNE,17,1.0,10.0,86,0.01,,,0.11,WUHU216DAVISVP2,2014-01-02 02:00:00,
2014-01-01 21:05:00,13.9,10.5,30.20,NNE,32,3.0,10.0,86,0.01,,,0.11,WUHU216DAVISVP2,2014-01-02 02:05:00,
2014-01-01 21:10:00,13.8,10.4,30.20,NE,45,5.0,8.0,86,0.01,,,0.11,WUHU216DAVISVP2,2014-01-02 02:10:00,
2014-01-01 21:15:00,13.7,10.5,30.20,ENE,62,5.0,10.0,87,0.01,,,0.11,WUHU216DAVISVP2,2014-01-02 02:15:00,
2014-01-01 21:20:00,13.7,10.3,30.20,East,90,6.0,10.0,86,0.01,,,0.12,WUHU216DAVISVP2,2014-01-02 02:20:00,
2014-01-01 21:25:00,13.8,10.4,30.20,NE,36,8.0,12.0,86,0.01,,,0.12,WUHU216DAVISVP2,2014-01-02 02:25:00,
2014-01-01 21:30:00,13.9,10.5,30.20,ENE,67,4.0,12.0,86,0.01,,,0.12,WUHU216DAVISVP2,2014-01-02 02:30:00,
2014-01-01 21:35:00,13.9,10.5,30.20,NE,42,7.0,9.0,86,0.01,,,0.12,WUHU216DAVISVP2,2014-01-02 02:35:00,
2014-01-01 21:40:00,13.9,10.5,30.20,NE,34,4.0,10.0,86,0.01,,,0.12,WUHU216DAVISVP2,2014-01-02 02:40:00,
2014-01-01 21:45:00,13.9,10.5,30.20,NE,44,3.0,10.0,86,0.01,,,0.12,WUHU216DAVISVP2,2014-01-02 02:45:00,
2014-01-01 21:50:00,13.8,10.4,30.20,NE,51,1.0,8.0,86,0.01,,,0.12,WUHU216DAVISVP2,2014-01-02 02:50:00,
2014-01-01 21:55:00,13.8,10.4,30.20,ESE,112,1.0,9.0,86,0.01,,,0.12,WUHU216DAVISVP2,2014-01-02 02:55:00,
2014-01-01 22:00:00,13.7,10.3,30.20,NNE,32,8.0,9.0,86,0.01,,,0.12,WUHU216DAVISVP2,2014-01-02 03:00:00,
2014-01-01 22:05:00,13.6,10.2,30.20,NNE,29,2.0,10.0,86,0.01,,,0.12,WUHU216DAVISVP2,2014-01-02 03:05:00,
2014-01-01 22:10:00,13.5,10.1,30.20,ENE,57,4.0,11.0,86,0.01,,,0.12,WUHU216DAVISVP2,2014-01-02 03:10:00,
2014-01-01 22:15:00,13.5,10.1,30.20,NNE,29,4.0,11.0,86,0.02,,,0.13,WUHU216DAVISVP2,2014-01-02 03:15:00,
2014-01-01 22:20:00,13.5,10.1,30.20,NNE,28,7.0,10.0,86,0.01,,,0.13,WUHU216DAVISVP2,2014-01-02 03:20:00,
2014-01-01 22:25:00,13.4,10.0,30.20,East,92,1.0,9.0,86,0.01,,,0.13,WUHU216DAVISVP2,2014-01-02 03:25:00,
2014-01-01 22:30:00,13.4,10.0,30.19,NE,56,7.0,11.0,86,0.01,,,0.13,WUHU216DAVISVP2,2014-01-02 03:30:00,
2014-01-01 22:35:00,13.5,10.1,30.19,NNE,32,3.0,11.0,86,0.01,,,0.13,WUHU216DAVISVP2,2014-01-02 03:35:00,
2014-01-01 22:40:00,13.4,10.0,30.19,NE,34,6.0,9.0,86,0.01,,,0.13,WUHU216DAVISVP2,2014-01-02 03:40:00,
2014-01-01 22:45:00,13.4,10.0,30.19,NE,40,2.0,9.0,86,0.01,,,0.13,WUHU216DAVISVP2,2014-01-02 03:45:00,
2014-01-01 22:50:00,13.5,10.1,30.19,ENE,76,2.0,9.0,86,0.01,,,0.13,WUHU216DAVISVP2,2014-01-02 03:50:00,
2014-01-01 22:55:00,13.5,10.1,30.19,NNE,31,5.0,10.0,86,0.01,,,0.13,WUHU216DAVISVP2,2014-01-02 03:55:00,
2014-01-01 23:00:00,13.5,10.1,30.19,ENE,74,3.0,10.0,86,0.01,,,0.13,WUHU216DAVISVP2,2014-01-02 04:00:00,
2014-01-01 23:05:00,13.5,10.1,30.19,North,5,5.0,8.0,86,0.01,,,0.13,WUHU216DAVISVP2,2014-01-02 04:05:00,
2014-01-01 23:10:00,13.6,10.2,30.19,ENE,69,6.0,8.0,86,0.01,,,0.13,WUHU216DAVISVP2,2014-01-02 04:10:00,
2014-01-01 23:15:00,13.6,10.2,30.19,NNE,26,4.0,8.0,86,0.00,,,0.13,WUHU216DAVISVP2,2014-01-02 04:15:00,
2014-01-01 23:20:00,13.6,10.2,30.19,NNE,30,7.0,9.0,86,0.00,,,0.13,WUHU216DAVISVP2,2014-01-02 04:20:00,
2014-01-01 23:25:00,13.6,10.2,30.19,NNE,28,3.0,9.0,86,0.00,,,0.13,WUHU216DAVISVP2,2014-01-02 04:25:00,
2014-01-01 23:30:00,13.7,10.3,30.18,NE,37,3.0,8.0,86,0.01,,,0.14,WUHU216DAVISVP2,2014-01-02 04:30:00,
2014-01-01 23:35:00,13.7,10.3,30.18,NE,49,6.0,8.0,86,0.01,,,0.14,WUHU216DAVISVP2,2014-01-02 04:35:00,
2014-01-01 23:40:00,13.7,10.3,30.18,NE,51,1.0,8.0,86,0.01,,,0.14,WUHU216DAVISVP2,2014-01-02 04:40:00,
2014-01-01 23:45:00,13.9,10.5,30.18,NE,46,2.0,8.0,86,0.01,,,0.14,WUHU216DAVISVP2,2014-01-02 04:45:00,
2014-01-01 23:50:00,13.9,10.5,30.18,NNE,27,7.0,9.0,86,0.01,,,0.14,WUHU216DAVISVP2,2014-01-02 04:50:00,
2014-01-01 23:55:00,13.9,10.5,30.17,NE,52,2.0,9.0,86,0.01,,,0.14,WUHU216DAVISVP2,2014-01-02 04:55:00,